createdAt,value
2022-11-20T00:00:23.113Z,11.65
2022-11-20T00:02:49.658Z,12.00
2022-11-20T00:05:16.277Z,12.65
2022-11-20T00:07:42.831Z,18.55
2022-11-20T00:10:09.494Z,11.90
2022-11-20T00:12:36.074Z,8.48
2022-11-20T00:15:02.877Z,17.40
2022-11-20T00:17:29.490Z,11.07
2022-11-20T00:19:55.966Z,11.20
2022-11-20T00:22:22.547Z,14.63
2022-11-20T00:24:49.097Z,12.38
2022-11-20T00:27:15.649Z,10.80
2022-11-20T00:29:42.311Z,19.75
2022-11-20T00:32:08.896Z,29.33
2022-11-20T00:34:35.364Z,23.60
2022-11-20T00:37:01.919Z,16.40
2022-11-20T00:39:28.415Z,17.33
2022-11-20T00:41:54.995Z,13.77
2022-11-20T00:44:21.579Z,17.75
2022-11-20T00:46:48.175Z,14.23
2022-11-20T00:49:14.776Z,13.68
2022-11-20T00:51:41.369Z,18.43
2022-11-20T00:54:07.973Z,16.15
2022-11-20T00:56:34.418Z,19.45
2022-11-20T00:59:04.766Z,16.35
2022-11-20T01:01:31.535Z,15.80
2022-11-20T01:04:00.968Z,12.67
2022-11-20T01:06:31.047Z,13.13
2022-11-20T01:08:59.473Z,12.35
2022-11-20T01:11:32.019Z,11.02
2022-11-20T01:14:01.069Z,12.48
2022-11-20T01:16:31.654Z,10.77
2022-11-20T01:19:00.958Z,14.75
2022-11-20T01:21:30.523Z,11.93
2022-11-20T01:23:57.632Z,16.30
2022-11-20T01:26:28.406Z,11.68
2022-11-20T01:28:56.247Z,13.93
2022-11-20T01:31:28.798Z,11.48
2022-11-20T01:33:58.066Z,14.32
2022-11-20T01:36:27.367Z,13.88
2022-11-20T01:38:59.054Z,15.32
2022-11-20T01:41:45.409Z,14.60
2022-11-20T01:44:15.865Z,14.23
2022-11-20T01:46:56.742Z,17.40
2022-11-20T01:49:32.216Z,9.70
2022-11-20T01:52:04.061Z,12.32
2022-11-20T01:54:40.874Z,11.87
2022-11-20T01:57:11.511Z,11.43
2022-11-20T01:59:44.976Z,10.43
2022-11-20T02:02:11.427Z,10.70
2022-11-20T02:04:38.309Z,10.93
2022-11-20T02:07:06.370Z,9.23
2022-11-20T02:09:33.044Z,10.75
2022-11-20T02:12:00.452Z,19.50
2022-11-20T02:14:27.601Z,7.97
2022-11-20T02:16:56.016Z,11.25
2022-11-20T02:19:27.707Z,8.53
2022-11-20T02:22:11.725Z,8.38
2022-11-20T02:24:39.293Z,11.02
2022-11-20T02:27:14.280Z,9.18
2022-11-20T02:29:47.305Z,10.02
2022-11-20T02:32:35.799Z,13.50
2022-11-20T02:35:20.250Z,13.20
2022-11-20T02:37:51.418Z,16.55
2022-11-20T02:40:17.955Z,7.10
2022-11-20T02:42:44.400Z,10.05
2022-11-20T02:45:11.826Z,11.93
2022-11-20T02:47:38.436Z,14.15
2022-11-20T02:50:06.534Z,12.13
2022-11-20T02:52:33.160Z,12.88
2022-11-20T02:54:59.618Z,15.73
2022-11-20T02:57:26.124Z,13.03
2022-11-20T02:59:52.641Z,19.55
2022-11-20T03:02:19.202Z,11.23
2022-11-20T03:04:45.730Z,15.95
2022-11-20T03:07:12.220Z,13.52
2022-11-20T03:09:38.888Z,9.80
2022-11-20T03:12:05.963Z,10.32
2022-11-20T03:14:32.696Z,15.10
2022-11-20T03:16:59.384Z,10.05
2022-11-20T03:19:26.078Z,7.30
2022-11-20T03:21:52.623Z,7.57
2022-11-20T03:24:19.193Z,11.70
2022-11-20T03:26:45.720Z,13.93
2022-11-20T03:29:12.283Z,9.57
2022-11-20T03:31:41.524Z,13.65
2022-11-20T03:34:10.382Z,10.00
2022-11-20T03:36:39.598Z,10.23
2022-11-20T03:39:06.337Z,7.63
2022-11-20T03:41:37.783Z,6.40
2022-11-20T03:44:06.461Z,15.55
2022-11-20T03:46:33.087Z,9.40
2022-11-20T03:48:59.847Z,12.30
2022-11-20T03:51:31.784Z,9.27
2022-11-20T03:54:01.865Z,11.18
2022-11-20T03:56:30.576Z,13.13
2022-11-20T03:58:57.165Z,13.27
2022-11-20T04:01:26.618Z,11.65
2022-11-20T04:03:55.580Z,8.70
2022-11-20T04:06:30.782Z,11.48
2022-11-20T04:08:58.958Z,12.02
2022-11-20T04:11:26.716Z,10.17
2022-11-20T04:13:57.055Z,11.75
2022-11-20T04:16:25.085Z,8.52
2022-11-20T04:18:56.421Z,10.55
2022-11-20T04:21:23.145Z,10.15
2022-11-20T04:23:50.816Z,10.73
2022-11-20T04:26:17.674Z,10.30
2022-11-20T04:28:44.350Z,9.27
2022-11-20T04:31:18.053Z,11.35
2022-11-20T04:33:45.433Z,9.32
2022-11-20T04:36:15.088Z,12.90
2022-11-20T04:38:42.209Z,9.57
2022-11-20T04:41:15.597Z,11.40
2022-11-20T04:43:42.632Z,7.10
2022-11-20T04:46:09.120Z,12.38
2022-11-20T04:48:35.816Z,11.70
2022-11-20T04:51:05.831Z,9.18
2022-11-20T04:53:32.806Z,7.63
2022-11-20T04:56:03.913Z,8.95
2022-11-20T04:58:30.595Z,6.28
2022-11-20T05:01:07.112Z,11.20
2022-11-20T05:03:37.315Z,11.30
2022-11-20T05:06:07.094Z,6.03
2022-11-20T05:08:34.391Z,6.70
2022-11-20T05:11:03.198Z,11.00
2022-11-20T05:13:29.858Z,10.10
2022-11-20T05:15:56.617Z,10.60
2022-11-20T05:18:23.337Z,8.65
2022-11-20T05:20:56.033Z,9.57
2022-11-20T05:23:22.555Z,9.85
2022-11-20T05:25:49.053Z,10.00
2022-11-20T05:28:15.635Z,8.20
2022-11-20T05:30:42.248Z,11.23
2022-11-20T05:33:09.067Z,9.73
2022-11-20T05:35:35.544Z,11.38
2022-11-20T05:38:02.109Z,12.07
2022-11-20T05:40:28.694Z,8.60
2022-11-20T05:42:55.233Z,12.63
2022-11-20T05:45:21.819Z,14.57
2022-11-20T05:47:49.713Z,13.15
2022-11-20T05:50:16.200Z,6.43
2022-11-20T05:52:42.705Z,8.73
2022-11-20T05:55:09.634Z,7.63
2022-11-20T05:57:36.501Z,11.82
2022-11-20T06:00:04.630Z,11.38
2022-11-20T06:02:31.597Z,12.33
2022-11-20T06:04:58.150Z,8.73
2022-11-20T06:07:24.616Z,8.93
2022-11-20T06:09:51.255Z,9.15
2022-11-20T06:12:17.777Z,7.40
2022-11-20T06:14:44.458Z,6.97
2022-11-20T06:17:11.015Z,11.70
2022-11-20T06:19:37.519Z,8.70
2022-11-20T06:22:04.052Z,9.45
2022-11-20T06:24:30.567Z,10.90
2022-11-20T06:26:57.050Z,9.53
2022-11-20T06:29:23.996Z,12.85
2022-11-20T06:31:50.741Z,10.48
2022-11-20T06:34:17.394Z,12.20
2022-11-20T06:36:43.868Z,7.53
2022-11-20T06:39:10.568Z,10.30
2022-11-20T06:41:37.259Z,10.68
2022-11-20T06:44:06.533Z,11.13
2022-11-20T06:46:34.550Z,8.20
2022-11-20T06:49:01.082Z,11.30
2022-11-20T06:51:27.647Z,12.47
2022-11-20T06:53:54.373Z,11.68
2022-11-20T06:56:21.007Z,10.57
2022-11-20T06:58:47.596Z,10.00
2022-11-20T07:01:16.065Z,11.68
2022-11-20T07:03:43.038Z,11.73
2022-11-20T07:06:09.865Z,7.93
2022-11-20T07:08:36.799Z,10.48
2022-11-20T07:11:06.559Z,12.20
2022-11-20T07:13:33.881Z,9.18
2022-11-20T07:16:02.065Z,10.87
2022-11-20T07:18:28.554Z,10.98
2022-11-20T07:20:55.414Z,9.38
2022-11-20T07:23:21.939Z,12.77
2022-11-20T07:25:48.614Z,14.63
2022-11-20T07:28:15.185Z,11.63
2022-11-20T07:30:41.864Z,11.65
2022-11-20T07:33:08.443Z,12.15
2022-11-20T07:35:35.015Z,9.05
2022-11-20T07:38:01.491Z,13.05
2022-11-20T07:40:28.869Z,14.33
2022-11-20T07:42:56.293Z,13.88
2022-11-20T07:45:24.659Z,14.77
2022-11-20T07:47:52.169Z,9.23
2022-11-20T07:50:20.111Z,9.15
2022-11-20T07:52:47.267Z,12.77
2022-11-20T07:55:14.049Z,8.30
2022-11-20T07:57:40.648Z,8.98
2022-11-20T08:00:12.001Z,11.20
2022-11-20T08:02:40.299Z,11.23
2022-11-20T08:05:07.843Z,10.53
2022-11-20T08:07:41.916Z,15.00
2022-11-20T08:10:10.241Z,18.58
2022-11-20T08:12:55.093Z,10.95
2022-11-20T08:15:22.156Z,15.45
2022-11-20T08:18:08.439Z,14.50
2022-11-20T08:20:36.317Z,15.43
2022-11-20T08:23:06.450Z,10.13
2022-11-20T08:25:34.542Z,11.05
2022-11-20T08:28:10.329Z,16.13
2022-11-20T08:30:45.230Z,10.77
2022-11-20T08:33:11.804Z,10.63
2022-11-20T08:35:39.251Z,11.88
2022-11-20T08:38:07.163Z,15.45
2022-11-20T08:40:34.731Z,16.35
2022-11-20T08:43:01.816Z,14.03
2022-11-20T08:45:33.448Z,11.48
2022-11-20T08:48:01.668Z,10.57
2022-11-20T08:50:28.187Z,17.15
2022-11-20T08:52:54.708Z,12.50
2022-11-20T08:55:21.177Z,11.20
2022-11-20T08:57:50.794Z,16.92
2022-11-20T09:00:17.881Z,15.70
2022-11-20T09:02:44.403Z,17.23
2022-11-20T09:05:10.972Z,17.45
2022-11-20T09:07:37.701Z,14.30
2022-11-20T09:10:23.227Z,20.00
2022-11-20T09:12:52.664Z,11.52
2022-11-20T09:15:19.821Z,12.32
2022-11-20T09:18:00.981Z,11.35
2022-11-20T09:20:34.706Z,14.83
2022-11-20T09:23:01.227Z,11.27
2022-11-20T09:25:28.113Z,11.32
2022-11-20T09:27:58.923Z,13.48
2022-11-20T09:30:26.125Z,15.27
2022-11-20T09:32:52.648Z,14.17
2022-11-20T09:35:19.668Z,15.88
2022-11-20T09:37:46.476Z,12.43
2022-11-20T09:40:25.161Z,13.90
2022-11-20T09:42:59.636Z,13.10
2022-11-20T09:45:34.246Z,16.03
2022-11-20T09:48:21.928Z,16.60
2022-11-20T09:51:12.752Z,13.70
2022-11-20T09:53:57.523Z,14.13
2022-11-20T09:56:24.579Z,10.30
2022-11-20T09:58:56.742Z,11.47
2022-11-20T10:01:27.845Z,15.43
2022-11-20T10:04:16.999Z,16.30
2022-11-20T10:07:31.492Z,17.80
2022-11-20T10:09:57.236Z,16.58
2022-11-20T10:12:35.835Z,11.27
2022-11-20T10:15:15.695Z,15.15
2022-11-20T10:17:54.589Z,14.70
2022-11-20T10:20:23.781Z,15.20
2022-11-20T10:23:25.758Z,12.75
2022-11-20T10:26:20.250Z,10.60
2022-11-20T10:29:09.215Z,13.85
2022-11-20T10:31:41.814Z,10.55
2022-11-20T10:34:30.721Z,10.75
2022-11-20T10:37:07.821Z,15.20
2022-11-20T10:39:42.267Z,11.60
2022-11-20T10:42:23.846Z,16.23
2022-11-20T10:45:06.137Z,16.80
2022-11-20T10:47:34.271Z,17.45
2022-11-20T10:50:10.280Z,15.85
2022-11-20T10:52:50.990Z,18.43
2022-11-20T10:55:55.139Z,16.55
2022-11-20T10:58:39.431Z,16.58
2022-11-20T11:01:19.456Z,19.63
2022-11-20T11:03:46.140Z,17.23
2022-11-20T11:06:37.533Z,18.37
2022-11-20T11:09:14.550Z,18.88
2022-11-20T11:11:41.570Z,19.55
2022-11-20T11:14:14.918Z,17.52
2022-11-20T11:16:53.168Z,15.30
2022-11-20T11:19:19.839Z,18.10
2022-11-20T11:21:55.590Z,19.38
2022-11-20T11:24:42.331Z,23.20
2022-11-20T11:27:18.156Z,15.90
2022-11-20T11:29:46.078Z,15.20
2022-11-20T11:32:19.708Z,24.97
2022-11-20T11:34:46.267Z,23.20
2022-11-20T11:37:22.469Z,18.48
2022-11-20T11:40:03.808Z,21.05
2022-11-20T11:42:36.966Z,18.55
2022-11-20T11:45:06.811Z,18.00
2022-11-20T11:47:38.560Z,21.73
2022-11-20T11:50:10.844Z,20.08
2022-11-20T11:52:52.227Z,21.23
2022-11-20T11:55:31.864Z,23.45
2022-11-20T11:58:42.966Z,20.43
2022-11-20T12:01:15.551Z,18.65
2022-11-20T12:03:45.858Z,25.77
2022-11-20T12:06:15.666Z,22.83
2022-11-20T12:08:56.894Z,18.48
2022-11-20T12:11:39.904Z,21.13
2022-11-20T12:14:17.904Z,18.75
2022-11-20T12:16:44.473Z,16.98
2022-11-20T12:19:13.459Z,16.92
2022-11-20T12:21:42.813Z,19.70
2022-11-20T12:24:49.970Z,23.47
2022-11-20T12:27:19.470Z,24.75
2022-11-20T12:30:10.977Z,20.23
2022-11-20T12:32:49.774Z,20.17
2022-11-20T12:35:22.404Z,23.98
2022-11-20T12:38:13.294Z,19.73
2022-11-20T12:41:09.293Z,23.33
2022-11-20T12:44:20.438Z,20.25
2022-11-20T12:46:52.587Z,24.88
2022-11-20T12:49:37.101Z,26.10
2022-11-20T12:52:26.691Z,19.23
2022-11-20T12:55:14.663Z,15.52
2022-11-20T12:58:06.073Z,20.25
2022-11-20T13:00:35.508Z,18.63
2022-11-20T13:03:29.023Z,22.92
2022-11-20T13:06:18.696Z,18.20
2022-11-20T13:08:57.108Z,19.35
2022-11-20T13:11:48.033Z,19.55
2022-11-20T13:14:27.536Z,20.60
2022-11-20T13:17:11.197Z,21.02
2022-11-20T13:19:38.317Z,17.87
2022-11-20T13:22:04.779Z,17.13
2022-11-20T13:24:33.288Z,21.33
2022-11-20T13:27:18.176Z,19.25
2022-11-20T13:30:01.517Z,22.48
2022-11-20T13:32:36.132Z,21.93
2022-11-20T13:35:05.663Z,21.52
2022-11-20T13:37:38.830Z,19.90
2022-11-20T13:40:08.595Z,21.35
2022-11-20T13:42:46.211Z,13.70
2022-11-20T13:45:25.615Z,19.73
2022-11-20T13:47:53.876Z,22.02
2022-11-20T13:50:32.455Z,18.38
2022-11-20T13:53:13.894Z,18.73
2022-11-20T13:56:02.121Z,22.30
2022-11-20T13:58:47.218Z,20.57
2022-11-20T14:01:26.000Z,20.50
2022-11-20T14:04:09.359Z,22.25
2022-11-20T14:06:43.523Z,14.32
2022-11-20T14:09:13.737Z,21.63
2022-11-20T14:11:48.201Z,20.37
2022-11-20T14:14:17.720Z,19.98
2022-11-20T14:16:45.351Z,18.77
2022-11-20T14:19:20.916Z,21.88
2022-11-20T14:21:55.130Z,19.65
2022-11-20T14:24:24.162Z,21.60
2022-11-20T14:26:52.269Z,17.52
2022-11-20T14:29:22.415Z,23.35
2022-11-20T14:31:54.353Z,23.90
2022-11-20T14:34:26.206Z,25.33
2022-11-20T14:36:58.126Z,25.87
2022-11-20T14:39:31.988Z,22.45
2022-11-20T14:41:58.520Z,24.88
2022-11-20T14:44:30.275Z,25.05
2022-11-20T14:46:57.989Z,24.42
2022-11-20T14:49:25.594Z,20.37
2022-11-20T14:52:03.664Z,23.80
2022-11-20T14:54:31.746Z,19.77
2022-11-20T14:57:02.868Z,25.75
2022-11-20T14:59:33.635Z,19.77
2022-11-20T15:02:06.775Z,26.30
2022-11-20T15:04:33.288Z,16.02
2022-11-20T15:07:00.911Z,16.77
2022-11-20T15:09:27.762Z,22.17
2022-11-20T15:12:01.317Z,24.05
2022-11-20T15:14:30.408Z,23.80
2022-11-20T15:16:57.557Z,22.38
2022-11-20T15:19:26.111Z,27.90
2022-11-20T15:21:52.866Z,26.13
2022-11-20T15:24:20.196Z,19.00
2022-11-20T15:26:46.932Z,24.20
2022-11-20T15:29:19.719Z,23.15
2022-11-20T15:31:46.633Z,21.42
2022-11-20T15:34:14.909Z,23.20
2022-11-20T15:36:42.574Z,25.23
2022-11-20T15:39:09.582Z,22.97
2022-11-20T15:41:36.863Z,21.50
2022-11-20T15:44:04.646Z,22.20
2022-11-20T15:46:39.517Z,22.25
2022-11-20T15:49:10.058Z,24.50
2022-11-20T15:51:39.208Z,25.47
2022-11-20T15:54:15.495Z,18.92
2022-11-20T15:56:42.241Z,26.20
2022-11-20T15:59:09.046Z,23.02
2022-11-20T16:01:35.677Z,23.08
2022-11-20T16:04:02.549Z,21.57
2022-11-20T16:06:29.009Z,23.52
2022-11-20T16:08:55.566Z,25.05
2022-11-20T16:11:22.203Z,23.45
2022-11-20T16:14:07.363Z,25.52
2022-11-20T16:16:37.184Z,31.20
2022-11-20T16:19:03.838Z,25.17
2022-11-20T16:21:33.922Z,20.40
2022-11-20T16:24:01.783Z,21.40
2022-11-20T16:26:28.988Z,19.55
2022-11-20T16:28:55.946Z,17.43
2022-11-20T16:31:23.421Z,23.73
2022-11-20T16:33:55.045Z,23.00
2022-11-20T16:36:23.685Z,18.73
2022-11-20T16:38:54.604Z,21.10
2022-11-20T16:41:21.711Z,22.83
2022-11-20T16:43:53.574Z,21.08
2022-11-20T16:46:22.957Z,27.73
2022-11-20T16:48:56.917Z,19.35
2022-11-20T16:51:24.577Z,20.45
2022-11-20T16:53:51.416Z,22.77
2022-11-20T16:56:20.470Z,24.17
2022-11-20T16:58:48.970Z,18.65
2022-11-20T17:01:18.712Z,19.13
2022-11-20T17:03:47.504Z,17.73
2022-11-20T17:06:16.452Z,18.93
2022-11-20T17:08:43.763Z,19.45
2022-11-20T17:11:14.074Z,16.30
2022-11-20T17:13:40.999Z,20.38
2022-11-20T17:16:10.090Z,20.25
2022-11-20T17:18:37.007Z,20.07
2022-11-20T17:21:05.563Z,14.90
2022-11-20T17:23:37.318Z,22.13
2022-11-20T17:26:04.943Z,17.58
2022-11-20T17:28:32.081Z,22.45
2022-11-20T17:31:01.810Z,17.93
2022-11-20T17:33:29.022Z,27.98
2022-11-20T17:35:55.734Z,22.45
2022-11-20T17:38:22.442Z,19.13
2022-11-20T17:40:48.955Z,20.38
2022-11-20T17:43:15.502Z,23.80
2022-11-20T17:45:42.923Z,17.42
2022-11-20T17:48:09.465Z,20.02
2022-11-20T17:50:36.135Z,18.70
2022-11-20T17:53:02.821Z,14.25
2022-11-20T17:55:55.586Z,16.77
2022-11-20T17:58:22.664Z,19.65
2022-11-20T18:00:49.213Z,19.33
2022-11-20T18:03:16.192Z,22.45
2022-11-20T18:05:42.703Z,21.80
2022-11-20T18:08:09.243Z,20.53
2022-11-20T18:10:35.922Z,14.45
2022-11-20T18:13:02.525Z,15.43
2022-11-20T18:15:29.103Z,15.88
2022-11-20T18:17:56.259Z,20.00
2022-11-20T18:20:33.097Z,16.37
2022-11-20T18:23:03.129Z,18.90
2022-11-20T18:25:29.905Z,19.08
2022-11-20T18:27:56.558Z,18.13
2022-11-20T18:30:23.176Z,12.80
2022-11-20T18:32:50.098Z,19.70
2022-11-20T18:35:16.751Z,18.55
2022-11-20T18:37:43.443Z,16.70
2022-11-20T18:40:10.798Z,18.02
2022-11-20T18:42:56.010Z,21.05
2022-11-20T18:45:22.952Z,17.43
2022-11-20T18:47:49.460Z,20.95
2022-11-20T18:50:16.009Z,18.58
2022-11-20T18:52:44.773Z,20.88
2022-11-20T18:55:12.695Z,18.05
2022-11-20T18:57:39.270Z,18.87
2022-11-20T19:00:09.634Z,19.63
2022-11-20T19:02:41.555Z,19.73
2022-11-20T19:05:10.137Z,17.58
2022-11-20T19:07:36.747Z,19.77
2022-11-20T19:10:04.585Z,23.77
2022-11-20T19:12:31.611Z,21.15
2022-11-20T19:14:58.230Z,19.05
2022-11-20T19:17:24.693Z,21.05
2022-11-20T19:19:51.364Z,23.10
2022-11-20T19:22:17.927Z,22.93
2022-11-20T19:24:44.593Z,18.83
2022-11-20T19:27:11.354Z,21.02
2022-11-20T19:29:38.334Z,18.67
2022-11-20T19:32:04.962Z,16.02
2022-11-20T19:34:31.888Z,18.87
2022-11-20T19:37:00.500Z,18.77
2022-11-20T19:39:27.345Z,20.58
2022-11-20T19:41:54.146Z,18.73
2022-11-20T19:44:20.710Z,18.30
2022-11-20T19:46:47.297Z,17.83
2022-11-20T19:49:14.506Z,14.07
2022-11-20T19:51:46.081Z,20.58
2022-11-20T19:54:13.099Z,17.20
2022-11-20T19:56:39.664Z,16.15
2022-11-20T19:59:06.248Z,19.57
2022-11-20T20:01:33.052Z,18.92
2022-11-20T20:04:05.436Z,16.30
2022-11-20T20:06:35.037Z,19.95
2022-11-20T20:09:05.684Z,18.10
2022-11-20T20:11:34.170Z,17.23
2022-11-20T20:14:02.560Z,16.40
2022-11-20T20:16:29.520Z,19.85
2022-11-20T20:18:57.740Z,17.52
2022-11-20T20:21:24.491Z,20.20
2022-11-20T20:23:55.213Z,16.77
2022-11-20T20:26:23.859Z,16.10
2022-11-20T20:28:51.101Z,15.45
2022-11-20T20:31:20.126Z,19.60
2022-11-20T20:33:46.654Z,23.83
2022-11-20T20:36:15.500Z,17.97
2022-11-20T20:38:43.270Z,19.55
2022-11-20T20:41:10.370Z,20.08
2022-11-20T20:43:56.445Z,22.33
2022-11-20T20:46:23.809Z,17.50
2022-11-20T20:48:54.408Z,17.17
2022-11-20T20:51:22.065Z,20.42
2022-11-20T20:53:49.023Z,18.15
2022-11-20T20:56:16.253Z,22.65
2022-11-20T20:58:43.274Z,21.50
2022-11-20T21:01:13.641Z,24.30
2022-11-20T21:03:40.717Z,20.17
2022-11-20T21:06:10.039Z,23.50
2022-11-20T21:08:40.431Z,20.05
2022-11-20T21:11:13.058Z,18.10
2022-11-20T21:13:40.598Z,21.03
2022-11-20T21:16:07.674Z,23.75
2022-11-20T21:18:34.499Z,21.90
2022-11-20T21:21:23.278Z,23.80
2022-11-20T21:23:49.813Z,21.42
2022-11-20T21:26:17.237Z,27.70
2022-11-20T21:28:43.921Z,22.58
2022-11-20T21:31:15.144Z,20.75
2022-11-20T21:33:43.929Z,23.65
2022-11-20T21:36:13.185Z,23.15
2022-11-20T21:38:39.870Z,22.80
2022-11-20T21:41:08.334Z,24.90
2022-11-20T21:43:35.086Z,23.70
2022-11-20T21:46:07.891Z,29.95
2022-11-20T21:48:36.335Z,24.08
2022-11-20T21:51:06.852Z,21.60
2022-11-20T21:53:33.862Z,27.02
2022-11-20T21:56:00.828Z,23.80
2022-11-20T21:58:28.194Z,23.60
2022-11-20T22:00:54.906Z,28.75
2022-11-20T22:03:21.988Z,24.07
2022-11-20T22:05:56.767Z,29.92
2022-11-20T22:08:24.250Z,25.27
2022-11-20T22:11:00.265Z,27.95
2022-11-20T22:13:46.437Z,32.80
2022-11-20T22:16:13.602Z,21.43
2022-11-20T22:18:44.870Z,25.27
2022-11-20T22:21:13.069Z,24.88
2022-11-20T22:23:39.884Z,20.65
2022-11-20T22:26:09.774Z,29.40
2022-11-20T22:28:37.082Z,22.33
2022-11-20T22:31:05.907Z,23.17
2022-11-20T22:33:33.474Z,22.73
2022-11-20T22:36:03.262Z,28.73
2022-11-20T22:38:31.460Z,24.15
2022-11-20T22:41:03.357Z,17.20
2022-11-20T22:43:30.295Z,32.38
2022-11-20T22:46:06.402Z,26.60
2022-11-20T22:48:36.765Z,28.70
2022-11-20T22:51:10.517Z,29.17
2022-11-20T22:53:37.396Z,31.40
2022-11-20T22:56:06.684Z,30.45
2022-11-20T22:58:34.815Z,31.65
2022-11-20T23:01:14.683Z,23.75
2022-11-20T23:03:43.001Z,26.52
2022-11-20T23:06:10.626Z,32.40
2022-11-20T23:08:37.935Z,33.70
2022-11-20T23:11:07.378Z,31.63
2022-11-20T23:13:35.092Z,28.98
2022-11-20T23:16:07.218Z,30.92
2022-11-20T23:18:34.989Z,25.57
2022-11-20T23:21:11.783Z,29.40
2022-11-20T23:23:38.642Z,29.77
2022-11-20T23:26:09.030Z,28.20
2022-11-20T23:28:35.672Z,21.65
2022-11-20T23:31:03.116Z,21.60
2022-11-20T23:33:30.419Z,22.88
2022-11-20T23:35:57.306Z,26.83
2022-11-20T23:38:23.885Z,28.98
2022-11-20T23:40:52.038Z,29.45
2022-11-20T23:43:21.215Z,21.03
2022-11-20T23:45:56.119Z,25.63
2022-11-20T23:48:25.806Z,30.60
2022-11-20T23:50:52.440Z,29.45
2022-11-20T23:53:19.856Z,28.65
2022-11-20T23:55:47.942Z,23.67
2022-11-20T23:58:15.151Z,29.38
